Time;durP1;ratioP1;P1;durP2;ratioP2;P2;SDS_P1;SDS_P2;PMS_P1;PMS_P2;Temp;Humidity;BMP_temperature;BMP_pressure;BME280_temperature;BME280_humidity;BME280_pressure;Samples;Min_cycle;Max_cycle;Signal;HPM_P1;HPM_P2
2022/03/29 00:00:20;;;;;;;8.47;5.93;;;9.40;99.90;;;;;;5010743;28;20624;-77
2022/03/29 00:02:47;;;;;;;9.30;6.17;;;9.50;99.90;;;;;;5011210;28;20201;-77
2022/03/29 00:05:15;;;;;;;7.53;6.17;;;9.50;99.90;;;;;;5023424;28;20212;-77
2022/03/29 00:07:42;;;;;;;8.07;6.47;;;9.60;99.90;;;;;;5030772;28;20209;-77
2022/03/29 00:10:09;;;;;;;6.50;5.90;;;9.70;99.90;;;;;;5030823;28;20211;-78
2022/03/29 00:12:36;;;;;;;6.43;5.83;;;9.70;99.90;;;;;;5030706;28;20212;-78
2022/03/29 00:15:03;;;;;;;8.43;6.17;;;9.70;99.90;;;;;;5032208;28;20225;-85
2022/03/29 00:17:30;;;;;;;8.30;6.10;;;9.80;99.90;;;;;;5032553;28;20224;-85
2022/03/29 00:19:57;;;;;;;6.93;6.03;;;9.80;99.90;;;;;;5032490;28;20733;-85
2022/03/29 00:22:26;;;;;;;8.77;6.40;;;9.70;99.90;;;;;;5032643;28;20208;-85
2022/03/29 00:24:52;;;;;;;8.20;6.33;;;9.40;99.90;;;;;;5032435;28;20208;-85
2022/03/29 00:27:20;;;;;;;12.03;6.33;;;9.40;99.90;;;;;;5032498;28;20227;-85
2022/03/29 00:29:46;;;;;;;8.20;6.50;;;9.50;99.90;;;;;;5031816;28;20219;-77
2022/03/29 00:32:13;;;;;;;6.83;6.13;;;9.50;99.90;;;;;;5030569;28;20204;-77
2022/03/29 00:34:40;;;;;;;6.60;5.90;;;9.40;99.90;;;;;;5030246;28;20280;-77
2022/03/29 00:37:07;;;;;;;7.07;5.70;;;9.50;99.90;;;;;;5030334;28;20241;-77
2022/03/29 00:39:35;;;;;;;6.93;6.07;;;9.50;99.90;;;;;;5029881;28;20219;-76
2022/03/29 00:42:02;;;;;;;8.07;5.53;;;9.40;99.90;;;;;;5030368;28;20664;-77
2022/03/29 00:44:31;;;;;;;8.10;6.07;;;9.40;99.90;;;;;;5029533;28;20675;-77
2022/03/29 00:46:58;;;;;;;6.97;6.20;;;9.30;99.90;;;;;;5029997;28;20208;-77
2022/03/29 00:49:24;;;;;;;6.93;6.00;;;9.20;99.90;;;;;;5029879;28;20209;-77
2022/03/29 00:51:55;;;;;;;7.57;5.93;;;9.30;99.90;;;;;;5030043;28;20274;-77
2022/03/29 00:54:21;;;;;;;6.70;6.00;;;9.30;99.90;;;;;;5011884;28;20205;-77
2022/03/29 00:56:50;;;;;;;6.87;5.80;;;8.90;99.90;;;;;;5010236;28;20640;-77
2022/03/29 00:59:17;;;;;;;7.73;6.27;;;8.90;99.90;;;;;;5009754;28;20210;-78
2022/03/29 01:01:44;;;;;;;8.37;6.20;;;8.70;99.90;;;;;;5023973;28;20646;-77
2022/03/29 01:04:11;;;;;;;7.40;6.50;;;8.70;99.90;;;;;;5029696;28;20204;-77
2022/03/29 01:06:38;;;;;;;6.97;6.07;;;8.70;99.90;;;;;;5029702;28;20271;-77
2022/03/29 01:09:05;;;;;;;6.37;5.37;;;8.90;99.90;;;;;;5029721;28;20236;-78
2022/03/29 01:11:32;;;;;;;7.53;6.10;;;8.70;99.90;;;;;;5029474;28;20550;-78
2022/03/29 01:14:01;;;;;;;7.67;6.67;;;8.50;99.90;;;;;;5025718;28;20209;-77
2022/03/29 01:19:16;;;;;;;9.63;6.87;;;8.70;99.90;;;;;;5013360;28;20244;-77
2022/03/29 01:21:52;;;;;;;8.23;6.50;;;8.70;99.90;;;;;;5029422;28;20201;-77
2022/03/29 01:24:19;;;;;;;9.13;6.97;;;8.70;99.90;;;;;;5029361;28;20209;-78
2022/03/29 01:26:47;;;;;;;8.37;6.90;;;8.90;99.90;;;;;;5029145;28;20706;-78
2022/03/29 01:29:14;;;;;;;8.37;7.23;;;8.50;99.90;;;;;;5028129;28;20212;-78
2022/03/29 01:31:43;;;;;;;8.90;6.67;;;8.20;99.90;;;;;;5029081;28;20205;-82
2022/03/29 01:34:10;;;;;;;9.23;7.00;;;8.10;99.90;;;;;;5029666;28;20216;-81
2022/03/29 01:36:37;;;;;;;9.50;6.33;;;8.20;99.90;;;;;;5029435;28;20251;-85
2022/03/29 01:39:05;;;;;;;10.63;7.30;;;8.40;99.90;;;;;;5030953;28;20205;-84
2022/03/29 01:41:32;;;;;;;8.50;6.53;;;8.40;99.90;;;;;;5029987;28;20221;-78
2022/03/29 01:43:59;;;;;;;9.63;6.87;;;8.30;99.90;;;;;;5028721;28;20648;-78
2022/03/29 01:46:26;;;;;;;8.40;6.50;;;8.10;99.90;;;;;;5028867;28;20204;-79
2022/03/29 01:48:53;;;;;;;8.70;7.17;;;8.30;99.90;;;;;;5029108;28;20208;-79
2022/03/29 01:51:20;;;;;;;10.83;7.33;;;8.30;99.90;;;;;;5029383;28;20204;-78
2022/03/29 01:53:53;;;;;;;9.13;7.30;;;8.30;99.90;;;;;;5026747;28;20340;-83
2022/03/29 01:56:22;;;;;;;8.83;7.23;;;8.50;99.90;;;;;;5028103;28;20705;-82
2022/03/29 01:58:48;;;;;;;9.57;7.00;;;8.40;99.90;;;;;;5009193;28;20205;-82
2022/03/29 02:01:16;;;;;;;8.37;6.80;;;8.50;99.90;;;;;;5027788;28;20287;-82
2022/03/29 02:03:43;;;;;;;9.63;7.43;;;8.60;99.90;;;;;;5028847;28;20204;-82
2022/03/29 02:06:11;;;;;;;7.67;6.63;;;8.50;99.90;;;;;;5028835;28;20208;-82
2022/03/29 02:08:38;;;;;;;8.13;7.13;;;8.60;99.90;;;;;;5026152;28;20209;-82
2022/03/29 02:11:07;;;;;;;10.50;7.63;;;8.70;99.90;;;;;;5009153;28;20240;-82
2022/03/29 02:13:36;;;;;;;10.43;7.10;;;8.80;99.90;;;;;;5009029;28;20212;-82
2022/03/29 02:16:05;;;;;;;9.17;7.40;;;9.00;99.90;;;;;;5017051;28;20239;-83
2022/03/29 02:18:32;;;;;;;10.00;7.10;;;9.00;99.90;;;;;;5029920;28;20635;-83
2022/03/29 02:20:59;;;;;;;8.63;6.87;;;9.10;99.90;;;;;;5048638;28;20467;-83
2022/03/29 02:23:25;;;;;;;8.83;7.27;;;9.20;99.90;;;;;;5037719;28;20721;-82
2022/03/29 02:25:52;;;;;;;9.93;7.47;;;9.20;99.90;;;;;;5028894;28;20204;-82
2022/03/29 02:28:19;;;;;;;8.53;7.20;;;9.20;99.90;;;;;;5028486;28;20639;-82
2022/03/29 02:30:47;;;;;;;8.93;7.07;;;9.40;99.90;;;;;;5027798;28;20312;-82
2022/03/29 02:33:15;;;;;;;11.07;7.87;;;9.50;99.90;;;;;;5028421;28;20236;-81
2022/03/29 02:35:42;;;;;;;10.27;7.13;;;9.30;99.90;;;;;;5028240;28;20236;-80
2022/03/29 02:38:11;;;;;;;10.40;6.90;;;9.30;99.90;;;;;;5028219;28;20233;-80
2022/03/29 02:40:38;;;;;;;9.30;7.47;;;9.20;99.90;;;;;;5027767;28;20215;-81
2022/03/29 02:43:05;;;;;;;10.73;8.27;;;9.30;99.90;;;;;;5028473;28;20238;-81
2022/03/29 02:45:31;;;;;;;10.47;7.60;;;8.80;99.90;;;;;;5027854;28;20656;-83
2022/03/29 02:48:00;;;;;;;10.87;7.90;;;8.60;99.90;;;;;;5028136;28;20259;-81
2022/03/29 02:50:27;;;;;;;12.13;8.10;;;8.50;99.90;;;;;;5027844;28;20216;-79
2022/03/29 02:52:55;;;;;;;9.80;7.40;;;8.40;99.90;;;;;;5025939;28;20449;-79
2022/03/29 02:55:23;;;;;;;10.27;8.23;;;8.40;99.90;;;;;;5028136;28;20209;-78
2022/03/29 02:57:50;;;;;;;9.33;7.97;;;8.60;99.90;;;;;;5028670;28;20577;-79
2022/03/29 03:00:18;;;;;;;10.23;7.87;;;8.70;99.90;;;;;;5027744;28;20794;-79
2022/03/29 03:02:45;;;;;;;10.37;7.90;;;8.60;99.90;;;;;;5028131;28;20201;-79
2022/03/29 03:05:13;;;;;;;12.20;8.37;;;8.50;99.90;;;;;;5028177;28;20572;-81
2022/03/29 03:07:41;;;;;;;11.00;8.80;;;8.40;99.90;;;;;;5027735;28;20614;-82
2022/03/29 03:10:08;;;;;;;10.67;8.23;;;8.40;99.90;;;;;;5028158;28;20346;-82
2022/03/29 03:12:36;;;;;;;10.20;7.77;;;8.40;99.90;;;;;;5028028;28;20205;-82
2022/03/29 03:15:03;;;;;;;10.83;7.80;;;8.60;99.90;;;;;;5025528;28;20197;-81
2022/03/29 03:17:30;;;;;;;10.53;8.27;;;8.70;99.90;;;;;;5023305;28;20237;-82
2022/03/29 03:19:56;;;;;;;12.77;8.47;;;8.50;99.90;;;;;;5037300;28;20276;-82
2022/03/29 03:22:24;;;;;;;10.40;8.47;;;8.50;99.90;;;;;;5042234;28;20212;-82
2022/03/29 03:24:51;;;;;;;11.60;8.57;;;8.30;99.90;;;;;;5024280;28;20286;-83
2022/03/29 03:27:18;;;;;;;12.43;8.17;;;8.30;99.90;;;;;;5024364;28;20213;-82
2022/03/29 03:29:46;;;;;;;11.67;8.13;;;8.50;99.90;;;;;;5023694;28;20615;-81
2022/03/29 03:32:13;;;;;;;10.47;8.00;;;8.50;99.90;;;;;;5024342;28;20213;-81
2022/03/29 03:34:39;;;;;;;9.93;8.17;;;8.40;99.90;;;;;;5023563;28;20249;-81
2022/03/29 03:37:07;;;;;;;11.70;9.43;;;8.40;99.90;;;;;;5023825;28;20299;-80
2022/03/29 03:39:37;;;;;;;12.93;9.43;;;8.30;99.90;;;;;;5004237;28;20295;-80
2022/03/29 03:42:04;;;;;;;10.93;7.50;;;8.10;99.90;;;;;;5003796;28;20210;-81
2022/03/29 03:44:31;;;;;;;12.73;8.97;;;8.20;99.90;;;;;;5003890;28;20217;-81
2022/03/29 03:47:00;;;;;;;11.97;8.13;;;8.20;99.90;;;;;;5004407;28;20625;-82
2022/03/29 03:49:27;;;;;;;10.33;8.13;;;8.30;99.90;;;;;;5009839;28;20295;-81
2022/03/29 03:51:54;;;;;;;11.93;8.63;;;8.30;99.90;;;;;;5025184;28;20625;-81
2022/03/29 03:54:21;;;;;;;12.23;8.60;;;8.30;99.90;;;;;;5027102;28;20275;-81
2022/03/29 03:56:51;;;;;;;12.47;9.37;;;8.10;99.90;;;;;;5027396;28;20240;-81
2022/03/29 03:59:18;;;;;;;11.47;8.93;;;8.20;99.90;;;;;;5027421;28;20225;-83
2022/03/29 04:01:44;;;;;;;10.33;8.20;;;8.20;99.90;;;;;;5029689;28;20691;-81
2022/03/29 04:04:11;;;;;;;11.87;8.70;;;8.40;99.90;;;;;;5031046;28;20205;-83
2022/03/29 04:06:37;;;;;;;10.03;8.23;;;8.40;99.90;;;;;;5031038;28;20619;-83
2022/03/29 04:09:04;;;;;;;13.30;9.57;;;8.50;99.90;;;;;;5030520;28;20550;-83
2022/03/29 04:11:31;;;;;;;11.57;8.87;;;8.40;99.90;;;;;;5028310;28;20292;-85
2022/03/29 04:13:59;;;;;;;12.30;8.90;;;8.50;99.90;;;;;;5019062;28;20269;-83
2022/03/29 04:16:27;;;;;;;10.80;8.50;;;8.50;99.90;;;;;;5014736;28;20239;-83
2022/03/29 04:18:53;;;;;;;10.17;8.33;;;8.50;99.90;;;;;;5032159;28;20328;-83
2022/03/29 04:21:20;;;;;;;11.83;8.37;;;8.40;99.90;;;;;;5027004;28;20192;-83
2022/03/29 04:23:47;;;;;;;9.90;8.63;;;8.50;99.90;;;;;;5027880;28;20205;-82
2022/03/29 04:26:13;;;;;;;13.50;9.17;;;8.50;99.90;;;;;;5027349;28;20204;-84
2022/03/29 04:28:40;;;;;;;11.30;8.50;;;8.50;99.90;;;;;;5029315;28;20209;-83
2022/03/29 04:31:10;;;;;;;10.93;8.53;;;8.80;99.90;;;;;;5028833;28;20197;-83
2022/03/29 04:33:37;;;;;;;12.33;8.80;;;8.90;99.90;;;;;;5029027;28;20196;-83
2022/03/29 04:36:08;;;;;;;13.27;8.87;;;8.70;99.90;;;;;;5029325;28;20197;-83
2022/03/29 04:38:34;;;;;;;11.20;8.23;;;8.70;99.90;;;;;;5028789;28;20251;-83
2022/03/29 04:41:06;;;;;;;11.10;8.20;;;8.50;99.90;;;;;;5029114;28;20618;-83
2022/03/29 04:43:33;;;;;;;11.27;8.80;;;8.50;99.90;;;;;;5028753;28;20648;-83
2022/03/29 04:46:01;;;;;;;11.20;8.37;;;8.40;99.90;;;;;;5027714;28;20227;-83
2022/03/29 04:48:29;;;;;;;12.27;9.23;;;8.40;99.90;;;;;;5028866;28;20205;-83
2022/03/29 04:50:57;;;;;;;10.07;8.53;;;8.50;99.90;;;;;;5028870;28;20201;-84
2022/03/29 04:53:23;;;;;;;13.63;9.37;;;8.60;99.90;;;;;;5028971;28;20209;-83
2022/03/29 04:55:50;;;;;;;12.40;9.17;;;8.30;99.90;;;;;;5028767;28;20205;-83
2022/03/29 04:58:21;;;;;;;15.10;9.77;;;8.30;99.90;;;;;;5029530;28;20239;-83
2022/03/29 05:00:47;;;;;;;14.60;9.10;;;8.10;99.90;;;;;;5028239;28;20706;-83
2022/03/29 05:03:14;;;;;;;15.43;10.03;;;7.90;99.90;;;;;;5028844;28;20248;-83
2022/03/29 05:05:42;;;;;;;14.07;9.90;;;7.70;99.90;;;;;;5028927;28;20292;-83
2022/03/29 05:08:08;;;;;;;16.70;10.27;;;7.50;99.90;;;;;;5028993;28;20205;-83
2022/03/29 05:10:35;;;;;;;13.43;9.53;;;7.40;99.90;;;;;;5028732;28;20205;-83
2022/03/29 05:13:02;;;;;;;13.87;9.23;;;7.50;99.90;;;;;;5029195;28;20200;-83
2022/03/29 05:15:29;;;;;;;15.63;10.23;;;7.70;99.90;;;;;;5028361;28;20200;-84
2022/03/29 05:17:55;;;;;;;16.00;10.00;;;7.60;99.90;;;;;;5028810;28;20267;-83
2022/03/29 05:20:22;;;;;;;13.47;9.80;;;7.50;99.90;;;;;;5029978;28;21153;-83
2022/03/29 05:22:51;;;;;;;18.40;11.13;;;7.40;99.90;;;;;;5029104;28;20208;-84
2022/03/29 05:25:19;;;;;;;13.03;9.57;;;7.40;99.90;;;;;;5029052;28;20216;-83
2022/03/29 05:27:46;;;;;;;16.27;9.43;;;7.40;99.90;;;;;;5028657;28;20762;-84
2022/03/29 05:30:14;;;;;;;14.10;9.23;;;7.40;99.90;;;;;;5028503;28;20201;-83
2022/03/29 05:32:41;;;;;;;15.20;9.93;;;7.40;99.90;;;;;;5025606;28;20205;-84
2022/03/29 05:35:10;;;;;;;13.27;9.53;;;7.50;99.90;;;;;;5028511;28;20491;-84
2022/03/29 05:37:37;;;;;;;15.90;9.50;;;7.50;99.90;;;;;;5027144;28;20240;-81
2022/03/29 05:40:07;;;;;;;18.53;9.27;;;7.50;99.90;;;;;;5028150;28;20231;-80
2022/03/29 05:42:37;;;;;;;15.73;8.80;;;7.60;99.90;;;;;;5027982;28;20223;-83
2022/03/29 05:45:05;;;;;;;15.00;10.33;;;7.60;99.90;;;;;;5027598;28;20286;-82
2022/03/29 05:50:16;;;;;;;17.67;10.03;;;7.60;99.90;;;;;;5027230;28;20204;-82
2022/03/29 05:52:42;;;;;;;19.50;10.73;;;7.70;99.90;;;;;;5027775;28;20205;-82
2022/03/29 05:55:10;;;;;;;16.53;10.13;;;7.60;99.90;;;;;;5027987;28;20201;-82
2022/03/29 05:57:37;;;;;;;18.47;9.77;;;7.50;99.90;;;;;;5027785;28;20228;-81
2022/03/29 06:00:06;;;;;;;15.90;10.43;;;7.50;99.90;;;;;;5024902;28;20456;-82
2022/03/29 06:02:32;;;;;;;21.73;10.60;;;7.30;99.90;;;;;;5025612;28;20212;-81
2022/03/29 06:04:59;;;;;;;17.13;10.77;;;7.30;99.90;;;;;;5027771;28;20201;-82
2022/03/29 06:07:26;;;;;;;18.10;11.20;;;7.30;99.90;;;;;;5027231;28;20693;-82
2022/03/29 06:09:52;;;;;;;16.03;10.77;;;7.30;99.90;;;;;;5027470;28;20201;-81
2022/03/29 06:12:22;;;;;;;18.73;11.60;;;7.20;99.90;;;;;;5027610;28;20635;-81
2022/03/29 06:14:50;;;;;;;20.80;11.53;;;7.30;99.90;;;;;;5027008;28;20201;-82
2022/03/29 06:17:16;;;;;;;16.33;9.77;;;7.40;99.90;;;;;;5027438;28;20228;-83
2022/03/29 06:19:43;;;;;;;17.47;10.50;;;7.40;99.90;;;;;;5028979;28;20244;-82
2022/03/29 06:22:10;;;;;;;17.70;10.07;;;7.40;99.90;;;;;;5027359;28;20205;-82
2022/03/29 06:24:36;;;;;;;16.43;9.47;;;7.40;99.90;;;;;;5027672;28;20201;-82
2022/03/29 06:27:04;;;;;;;23.63;12.13;;;7.50;99.90;;;;;;5027381;28;20267;-82
2022/03/29 06:29:32;;;;;;;15.13;9.87;;;7.60;99.90;;;;;;5026534;28;20259;-82
2022/03/29 06:31:59;;;;;;;15.23;9.83;;;7.60;99.90;;;;;;5025891;28;20652;-81
2022/03/29 06:34:26;;;;;;;17.07;10.37;;;7.50;99.90;;;;;;5027136;28;20215;-81
2022/03/29 06:36:53;;;;;;;18.03;10.10;;;7.50;99.90;;;;;;5027119;28;20229;-82
2022/03/29 06:39:19;;;;;;;19.50;10.73;;;7.60;99.90;;;;;;5027062;28;20201;-81
2022/03/29 06:41:46;;;;;;;13.33;8.77;;;7.50;99.90;;;;;;5026741;28;20201;-83
2022/03/29 06:44:13;;;;;;;15.33;10.27;;;7.60;99.90;;;;;;5026672;28;20201;-81
2022/03/29 06:46:42;;;;;;;15.20;9.57;;;7.60;99.90;;;;;;5026547;28;20197;-82
2022/03/29 06:49:08;;;;;;;17.53;10.40;;;7.70;99.90;;;;;;5027998;28;20240;-81
2022/03/29 06:51:36;;;;;;;16.13;9.47;;;7.70;99.90;;;;;;5027537;28;20212;-79
2022/03/29 06:54:04;;;;;;;14.97;9.70;;;7.50;99.90;;;;;;5027634;28;20197;-79
2022/03/29 06:56:31;;;;;;;15.83;10.33;;;7.60;99.90;;;;;;5027746;28;20208;-79
2022/03/29 06:58:58;;;;;;;15.00;9.20;;;7.60;99.90;;;;;;5027283;28;20698;-81
2022/03/29 07:01:24;;;;;;;13.80;9.60;;;7.50;99.90;;;;;;5027533;28;20220;-82
2022/03/29 07:03:52;;;;;;;12.87;8.70;;;7.50;99.90;;;;;;5027795;28;20263;-81
2022/03/29 07:06:19;;;;;;;13.03;8.70;;;7.50;99.90;;;;;;5028118;28;20687;-81
2022/03/29 07:11:26;;;;;;;13.90;8.73;;;7.70;99.90;;;;;;5027125;28;20571;-82
2022/03/29 07:13:53;;;;;;;13.57;8.80;;;7.80;99.90;;;;;;5025268;28;20205;-82
2022/03/29 07:16:21;;;;;;;13.10;7.83;;;7.90;99.90;;;;;;5026603;28;20774;-82
2022/03/29 07:18:47;;;;;;;13.40;7.50;;;8.10;99.90;;;;;;5028751;28;20236;-82
2022/03/29 07:21:15;;;;;;;15.00;8.43;;;8.10;99.90;;;;;;5026790;28;20193;-82
2022/03/29 07:23:42;;;;;;;41.40;11.67;;;8.10;99.90;;;;;;5026437;28;20274;-82
2022/03/29 07:26:09;;;;;;;13.07;7.73;;;8.00;99.90;;;;;;5028789;28;20781;-82
2022/03/29 07:28:36;;;;;;;12.83;8.30;;;8.10;99.90;;;;;;5030557;28;20300;-82
2022/03/29 07:31:05;;;;;;;13.57;8.57;;;8.20;99.90;;;;;;5027416;28;20193;-82
2022/03/29 07:33:32;;;;;;;12.47;7.77;;;8.20;99.90;;;;;;5030354;28;20231;-81
2022/03/29 07:35:59;;;;;;;11.33;6.93;;;8.20;99.90;;;;;;5030169;28;20213;-81
2022/03/29 07:38:27;;;;;;;13.40;7.83;;;8.20;99.90;;;;;;5030102;28;20237;-82
2022/03/29 07:40:53;;;;;;;11.93;7.47;;;8.10;99.90;;;;;;5030610;28;20201;-81
2022/03/29 07:43:20;;;;;;;11.57;7.90;;;8.20;99.90;;;;;;5030406;28;20193;-81
2022/03/29 07:45:47;;;;;;;11.23;7.57;;;8.20;99.90;;;;;;5030086;28;20204;-82
2022/03/29 07:48:13;;;;;;;11.90;7.77;;;8.20;99.90;;;;;;5030672;28;20295;-82
2022/03/29 07:50:43;;;;;;;12.57;7.70;;;8.10;99.90;;;;;;5030117;28;20205;-82
2022/03/29 07:53:10;;;;;;;11.17;7.70;;;8.20;99.90;;;;;;5027325;28;20205;-81
2022/03/29 07:55:40;;;;;;;8.70;6.53;;;8.10;99.90;;;;;;5030375;28;20355;-82
2022/03/29 07:58:07;;;;;;;11.23;7.27;;;8.00;99.90;;;;;;5030699;28;20229;-82
2022/03/29 08:00:34;;;;;;;11.83;7.27;;;8.00;99.90;;;;;;5029480;28;20266;-82
2022/03/29 08:03:01;;;;;;;11.40;6.83;;;8.00;99.90;;;;;;5029627;28;20197;-81
2022/03/29 08:05:29;;;;;;;9.77;6.60;;;8.10;99.90;;;;;;5029704;28;20621;-82
2022/03/29 08:07:57;;;;;;;11.87;7.20;;;8.30;99.90;;;;;;5029617;28;20668;-82
2022/03/29 08:10:24;;;;;;;10.27;6.83;;;8.50;99.90;;;;;;5029738;28;20201;-82
2022/03/29 08:12:52;;;;;;;11.70;6.47;;;8.60;99.90;;;;;;5029602;28;20197;-82
2022/03/29 08:15:18;;;;;;;8.90;6.50;;;8.70;99.90;;;;;;5029721;28;20212;-83
2022/03/29 08:17:45;;;;;;;8.63;6.53;;;8.80;99.90;;;;;;5028694;28;20217;-85
2022/03/29 08:20:12;;;;;;;8.40;6.20;;;9.00;99.90;;;;;;5030827;28;20256;-82
2022/03/29 08:22:44;;;;;;;10.50;7.10;;;9.10;99.90;;;;;;5029292;28;20205;-83
2022/03/29 08:25:12;;;;;;;8.53;7.13;;;9.40;99.90;;;;;;5029553;28;20227;-83
2022/03/29 08:27:39;;;;;;;9.67;7.13;;;9.50;99.90;;;;;;5029311;28;20324;-82
2022/03/29 08:30:10;;;;;;;11.93;8.00;;;9.70;99.90;;;;;;5028174;28;20212;-82
2022/03/29 08:32:37;;;;;;;11.73;7.70;;;9.50;99.90;;;;;;5028720;28;20323;-82
2022/03/29 08:35:04;;;;;;;11.27;7.50;;;9.20;99.90;;;;;;5029816;28;20204;-83
2022/03/29 08:37:31;;;;;;;8.67;6.40;;;9.00;99.90;;;;;;5028318;28;20228;-83
2022/03/29 08:39:57;;;;;;;12.13;7.63;;;9.20;99.90;;;;;;5029341;28;20251;-83
2022/03/29 08:42:26;;;;;;;10.07;7.10;;;9.10;99.90;;;;;;5029582;28;20208;-83
2022/03/29 08:44:52;;;;;;;11.30;7.27;;;8.90;99.90;;;;;;5029056;28;20219;-83
2022/03/29 08:47:20;;;;;;;10.07;6.97;;;8.80;99.90;;;;;;5029233;28;20209;-83
2022/03/29 08:49:49;;;;;;;10.23;7.27;;;8.80;99.90;;;;;;5027539;28;20212;-83
2022/03/29 08:52:17;;;;;;;13.10;7.47;;;8.90;99.90;;;;;;5029142;28;20211;-83
2022/03/29 08:54:44;;;;;;;12.43;7.63;;;9.00;99.90;;;;;;5029665;28;20258;-82
2022/03/29 08:57:11;;;;;;;10.73;7.70;;;9.20;99.90;;;;;;5029040;28;20238;-83
2022/03/29 08:59:40;;;;;;;11.60;7.73;;;9.30;99.90;;;;;;5028591;28;20315;-85
2022/03/29 09:02:11;;;;;;;11.70;7.43;;;9.10;99.90;;;;;;5028618;28;20209;-82
2022/03/29 09:04:39;;;;;;;11.83;8.40;;;9.10;99.90;;;;;;5028680;28;20554;-80
2022/03/29 09:07:06;;;;;;;10.27;8.47;;;9.20;99.90;;;;;;5028517;28;20197;-80
2022/03/29 09:09:34;;;;;;;11.07;7.73;;;9.30;99.90;;;;;;5028393;28;20224;-80
2022/03/29 09:12:11;;;;;;;10.43;7.80;;;9.60;99.90;;;;;;5026031;28;20204;-81
2022/03/29 09:14:51;;;;;;;34.00;11.90;;;9.60;99.90;;;;;;5028215;28;20568;-80
2022/03/29 09:17:34;;;;;;;12.03;8.03;;;9.80;99.90;;;;;;5028485;28;20197;-81
2022/03/29 09:20:04;;;;;;;12.63;7.80;;;9.80;99.90;;;;;;5020980;28;20220;-81
2022/03/29 09:22:37;;;;;;;11.87;7.97;;;9.90;99.90;;;;;;5028466;28;20209;-80
2022/03/29 09:25:04;;;;;;;12.90;8.73;;;9.80;99.90;;;;;;5028547;28;20248;-81
2022/03/29 09:27:31;;;;;;;10.40;7.03;;;9.80;99.90;;;;;;5028182;28;20239;-80
2022/03/29 09:30:07;;;;;;;13.77;8.20;;;9.70;99.90;;;;;;5027665;28;20258;-80
2022/03/29 09:32:34;;;;;;;12.40;8.60;;;9.80;99.90;;;;;;5027864;28;20193;-81
2022/03/29 09:35:09;;;;;;;11.57;8.37;;;9.90;99.90;;;;;;5026725;28;20220;-81
2022/03/29 09:37:36;;;;;;;11.43;8.67;;;10.00;99.90;;;;;;5026907;28;20200;-80
2022/03/29 09:40:04;;;;;;;10.10;6.63;;;10.10;99.90;;;;;;5027948;28;20207;-81
2022/03/29 09:42:30;;;;;;;11.70;7.07;;;10.40;99.90;;;;;;5026757;28;20213;-80
2022/03/29 09:44:59;;;;;;;11.37;7.90;;;10.40;99.90;;;;;;5027108;28;20275;-81
2022/03/29 09:47:29;;;;;;;8.57;6.77;;;10.50;99.90;;;;;;5025738;28;20224;-81
2022/03/29 09:49:58;;;;;;;10.10;7.03;;;10.50;99.90;;;;;;5026691;28;20272;-81
2022/03/29 09:52:28;;;;;;;7.93;6.03;;;10.40;99.80;;;;;;5027280;28;20278;-81
2022/03/29 09:55:06;;;;;;;8.60;6.17;;;10.20;98.60;;;;;;5027176;28;20244;-81
2022/03/29 09:57:37;;;;;;;8.30;6.30;;;10.40;99.30;;;;;;5026994;28;20203;-81
2022/03/29 10:00:07;;;;;;;8.23;6.93;;;10.40;99.10;;;;;;5024806;28;20228;-80
2022/03/29 10:02:36;;;;;;;6.87;6.17;;;10.50;99.40;;;;;;5027054;28;20197;-80
2022/03/29 10:05:03;;;;;;;9.37;7.07;;;10.50;99.00;;;;;;5024876;28;20201;-81
2022/03/29 10:07:35;;;;;;;9.33;6.60;;;10.80;99.40;;;;;;5026837;28;20205;-81
2022/03/29 10:10:03;;;;;;;9.87;6.53;;;11.00;99.90;;;;;;5024792;28;20232;-82
2022/03/29 10:12:30;;;;;;;7.00;5.97;;;11.00;98.40;;;;;;5026925;28;20219;-80
2022/03/29 10:14:58;;;;;;;7.53;6.67;;;11.10;98.50;;;;;;5026991;28;20197;-80
2022/03/29 10:17:26;;;;;;;11.37;7.30;;;11.40;98.70;;;;;;5026633;28;20213;-80
2022/03/29 10:19:55;;;;;;;11.07;7.00;;;11.40;98.20;;;;;;5028179;28;20244;-80
2022/03/29 10:22:22;;;;;;;8.80;7.03;;;11.30;98.00;;;;;;5018085;28;20671;-81
2022/03/29 10:24:50;;;;;;;10.60;8.30;;;11.40;98.20;;;;;;5026659;28;20220;-80
2022/03/29 10:27:27;;;;;;;10.37;7.00;;;11.50;98.00;;;;;;5026849;28;20215;-82
2022/03/29 10:29:54;;;;;;;7.37;5.87;;;11.20;96.50;;;;;;5026559;28;20205;-80
2022/03/29 10:32:29;;;;;;;8.13;5.70;;;11.10;95.80;;;;;;5026640;28;20691;-81
2022/03/29 10:35:05;;;;;;;9.53;6.53;;;11.20;95.90;;;;;;5026687;28;20212;-81
2022/03/29 10:37:50;;;;;;;6.90;5.73;;;11.20;95.80;;;;;;5026321;28;20236;-81
2022/03/29 10:40:37;;;;;;;9.13;6.27;;;11.40;96.30;;;;;;5026551;28;21035;-81
2022/03/29 10:43:32;;;;;;;7.80;6.00;;;11.60;96.10;;;;;;5026796;28;20200;-81
2022/03/29 10:45:59;;;;;;;9.07;6.73;;;11.70;96.40;;;;;;5026891;28;20203;-81
2022/03/29 10:48:27;;;;;;;8.83;6.97;;;11.70;96.70;;;;;;5026455;28;20332;-81
2022/03/29 10:51:09;;;;;;;8.03;6.50;;;11.90;96.30;;;;;;5026576;28;20204;-81
2022/03/29 10:53:37;;;;;;;6.90;5.37;;;11.90;96.00;;;;;;5026670;28;20201;-81
2022/03/29 10:56:23;;;;;;;7.00;5.60;;;12.20;96.70;;;;;;5026603;28;20197;-80
2022/03/29 10:59:12;;;;;;;8.53;6.00;;;12.40;95.70;;;;;;5025139;28;20220;-76
2022/03/29 11:01:42;;;;;;;5.90;5.27;;;12.20;93.90;;;;;;5028960;28;20683;-80
2022/03/29 11:04:15;;;;;;;5.17;4.67;;;11.90;93.20;;;;;;5030242;28;20682;-80
2022/03/29 11:07:09;;;;;;;6.40;4.20;;;12.00;92.60;;;;;;5029859;28;20600;-80
2022/03/29 11:09:37;;;;;;;5.27;4.07;;;12.10;93.00;;;;;;5029792;28;20205;-80
2022/03/29 11:12:06;;;;;;;6.10;4.37;;;12.30;91.70;;;;;;5030391;28;20197;-80
2022/03/29 11:14:39;;;;;;;5.13;3.90;;;12.30;91.50;;;;;;5029700;28;20681;-80
2022/03/29 11:17:40;;;;;;;6.13;5.07;;;12.50;91.90;;;;;;5028260;28;20196;-81
2022/03/29 11:20:30;;;;;;;6.97;4.77;;;12.50;91.90;;;;;;5029838;28;20236;-80
2022/03/29 11:22:59;;;;;;;5.10;4.60;;;12.70;91.30;;;;;;5030303;28;20653;-80
2022/03/29 11:25:26;;;;;;;5.97;4.37;;;12.70;90.40;;;;;;5029965;28;20672;-81
2022/03/29 11:28:04;;;;;;;4.73;4.30;;;12.60;91.00;;;;;;5030143;28;20208;-80
2022/03/29 11:30:31;;;;;;;7.57;4.50;;;12.70;91.00;;;;;;5029605;28;20208;-81
2022/03/29 11:33:00;;;;;;;6.17;4.97;;;12.90;91.40;;;;;;5029685;28;20208;-80
2022/03/29 11:35:26;;;;;;;6.53;5.10;;;13.00;91.00;;;;;;5029470;28;20255;-80
2022/03/29 11:37:53;;;;;;;6.83;4.97;;;12.80;91.30;;;;;;5029759;28;20200;-81
2022/03/29 11:40:21;;;;;;;4.77;4.00;;;12.90;91.30;;;;;;5027254;28;20365;-80
2022/03/29 11:42:49;;;;;;;3.90;3.50;;;13.00;91.60;;;;;;5029659;28;20789;-80
2022/03/29 11:45:18;;;;;;;5.80;4.23;;;13.20;91.10;;;;;;5029428;28;20205;-79
2022/03/29 11:47:53;;;;;;;3.90;3.50;;;13.30;89.10;;;;;;5029296;28;20201;-80
2022/03/29 11:50:29;;;;;;;4.87;3.77;;;13.40;89.00;;;;;;5029687;28;20200;-80
2022/03/29 11:52:55;;;;;;;3.40;3.10;;;13.40;88.70;;;;;;5029791;28;20581;-80
2022/03/29 11:55:22;;;;;;;8.93;4.20;;;13.50;87.60;;;;;;5029393;28;20205;-80
2022/03/29 11:57:49;;;;;;;5.70;4.00;;;13.50;87.60;;;;;;5029294;28;20402;-79
2022/03/29 12:00:24;;;;;;;5.03;3.87;;;13.60;87.30;;;;;;5029092;28;20294;-80
2022/03/29 12:02:52;;;;;;;3.90;3.60;;;13.80;87.60;;;;;;5029064;28;20932;-81
2022/03/29 12:05:22;;;;;;;4.00;3.60;;;13.50;87.00;;;;;;5029433;28;20204;-80
2022/03/29 12:07:57;;;;;;;4.17;3.77;;;13.60;88.30;;;;;;5029293;28;20202;-78
2022/03/29 12:10:27;;;;;;;3.73;3.43;;;13.60;89.00;;;;;;5024463;28;20217;-79
2022/03/29 12:12:54;;;;;;;4.13;3.73;;;13.90;90.00;;;;;;5027629;28;20304;-79
2022/03/29 12:15:23;;;;;;;3.60;3.20;;;14.00;86.60;;;;;;5026396;28;20266;-79
2022/03/29 12:18:40;;;;;;;5.77;3.03;;;13.80;86.60;;;;;;5029082;28;20283;-78
2022/03/29 12:20:47;;;;;;;3.23;2.40;;;13.90;87.00;;;;;;5030008;28;20236;-79
2022/03/29 12:23:18;;;;;;;4.93;3.50;;;14.40;87.50;;;;;;5028929;28;20205;-78
2022/03/29 12:25:45;;;;;;;4.53;3.30;;;14.20;84.70;;;;;;5028855;28;20204;-79
2022/03/29 12:28:14;;;;;;;3.97;3.67;;;14.40;87.30;;;;;;5028912;28;20631;-79
2022/03/29 12:30:42;;;;;;;5.80;3.87;;;14.30;87.10;;;;;;5028276;28;20232;-78
2022/03/29 12:33:10;;;;;;;5.33;3.60;;;13.70;88.60;;;;;;5028681;28;20201;-78
2022/03/29 12:35:36;;;;;;;3.80;3.50;;;13.60;89.00;;;;;;5028706;28;20278;-78
2022/03/29 12:38:04;;;;;;;5.47;3.57;;;13.40;89.00;;;;;;5028749;28;20544;-78
2022/03/29 12:40:30;;;;;;;4.03;3.33;;;13.20;90.00;;;;;;5027979;28;20734;-78
2022/03/29 12:43:02;;;;;;;4.50;3.20;;;13.40;90.40;;;;;;5028496;28;20224;-79
2022/03/29 12:45:29;;;;;;;4.43;3.80;;;13.30;90.10;;;;;;5028150;28;20251;-79
2022/03/29 12:47:58;;;;;;;4.13;3.50;;;13.40;89.70;;;;;;5028586;28;20205;-79
2022/03/29 12:50:26;;;;;;;4.30;3.90;;;13.50;90.00;;;;;;5028649;28;20205;-79
2022/03/29 12:52:53;;;;;;;3.60;3.30;;;13.50;89.70;;;;;;5028886;28;20215;-79
2022/03/29 12:55:20;;;;;;;3.57;3.07;;;13.50;89.60;;;;;;5028400;28;20300;-78
2022/03/29 12:57:47;;;;;;;3.07;2.87;;;13.80;90.40;;;;;;5028561;28;20205;-79
2022/03/29 13:00:16;;;;;;;3.23;2.93;;;14.00;89.80;;;;;;5028343;28;20314;-78
2022/03/29 13:02:46;;;;;;;5.67;3.03;;;14.30;89.20;;;;;;5028146;28;20205;-79